sensor_id;sensor_type;location;lat;lon;timestamp;P1;durP1;ratioP1;P2;durP2;ratioP2
10007;SDS011;5043;41.766;26.204;2023-11-21T00:00:54;13.47;;;6.93;;
10007;SDS011;5043;41.766;26.204;2023-11-21T00:03:20;12.18;;;6.80;;
10007;SDS011;5043;41.766;26.204;2023-11-21T00:05:45;16.17;;;6.77;;
10007;SDS011;5043;41.766;26.204;2023-11-21T00:08:11;10.07;;;6.15;;
10007;SDS011;5043;41.766;26.204;2023-11-21T00:10:36;13.05;;;6.75;;
10007;SDS011;5043;41.766;26.204;2023-11-21T00:13:03;12.55;;;6.47;;
10007;SDS011;5043;41.766;26.204;2023-11-21T00:15:29;12.23;;;6.43;;
10007;SDS011;5043;41.766;26.204;2023-11-21T00:17:54;21.87;;;12.17;;
10007;SDS011;5043;41.766;26.204;2023-11-21T00:20:20;22.43;;;12.27;;
10007;SDS011;5043;41.766;26.204;2023-11-21T00:22:46;14.93;;;8.82;;
10007;SDS011;5043;41.766;26.204;2023-11-21T00:25:12;9.98;;;6.50;;
10007;SDS011;5043;41.766;26.204;2023-11-21T00:27:40;12.23;;;5.73;;
10007;SDS011;5043;41.766;26.204;2023-11-21T00:30:06;12.00;;;5.97;;
10007;SDS011;5043;41.766;26.204;2023-11-21T00:32:34;14.15;;;6.50;;
10007;SDS011;5043;41.766;26.204;2023-11-21T00:35:01;14.35;;;6.13;;
10007;SDS011;5043;41.766;26.204;2023-11-21T00:37:27;10.38;;;5.63;;
10007;SDS011;5043;41.766;26.204;2023-11-21T00:39:52;13.97;;;6.03;;
10007;SDS011;5043;41.766;26.204;2023-11-21T00:42:18;8.68;;;5.50;;
10007;SDS011;5043;41.766;26.204;2023-11-21T00:44:43;8.27;;;5.03;;
10007;SDS011;5043;41.766;26.204;2023-11-21T00:47:09;4.82;;;4.28;;
10007;SDS011;5043;41.766;26.204;2023-11-21T00:49:34;8.83;;;5.00;;
10007;SDS011;5043;41.766;26.204;2023-11-21T00:52:00;10.03;;;4.37;;
10007;SDS011;5043;41.766;26.204;2023-11-21T00:54:26;9.00;;;4.93;;
10007;SDS011;5043;41.766;26.204;2023-11-21T00:56:52;8.57;;;4.82;;
10007;SDS011;5043;41.766;26.204;2023-11-21T00:59:17;6.60;;;4.15;;
10007;SDS011;5043;41.766;26.204;2023-11-21T01:01:43;5.60;;;3.80;;
10007;SDS011;5043;41.766;26.204;2023-11-21T01:04:09;5.82;;;4.07;;
10007;SDS011;5043;41.766;26.204;2023-11-21T01:06:35;5.65;;;3.55;;
10007;SDS011;5043;41.766;26.204;2023-11-21T01:09:00;5.20;;;3.70;;
10007;SDS011;5043;41.766;26.204;2023-11-21T01:11:26;7.28;;;3.72;;
10007;SDS011;5043;41.766;26.204;2023-11-21T01:13:51;5.00;;;3.83;;
10007;SDS011;5043;41.766;26.204;2023-11-21T01:16:18;6.72;;;3.95;;
10007;SDS011;5043;41.766;26.204;2023-11-21T01:18:43;7.20;;;4.20;;
10007;SDS011;5043;41.766;26.204;2023-11-21T01:21:09;7.55;;;4.38;;
10007;SDS011;5043;41.766;26.204;2023-11-21T01:23:34;9.57;;;4.70;;
10007;SDS011;5043;41.766;26.204;2023-11-21T01:26:00;9.82;;;4.97;;
10007;SDS011;5043;41.766;26.204;2023-11-21T01:28:25;19.23;;;7.70;;
10007;SDS011;5043;41.766;26.204;2023-11-21T01:30:51;13.85;;;6.82;;
10007;SDS011;5043;41.766;26.204;2023-11-21T01:33:21;14.23;;;6.30;;
10007;SDS011;5043;41.766;26.204;2023-11-21T01:35:47;11.98;;;5.43;;
10007;SDS011;5043;41.766;26.204;2023-11-21T01:38:13;11.55;;;4.32;;
10007;SDS011;5043;41.766;26.204;2023-11-21T01:40:39;8.93;;;3.93;;
10007;SDS011;5043;41.766;26.204;2023-11-21T01:43:04;12.23;;;7.35;;
10007;SDS011;5043;41.766;26.204;2023-11-21T01:45:30;18.33;;;9.50;;
10007;SDS011;5043;41.766;26.204;2023-11-21T01:47:58;10.00;;;7.87;;
10007;SDS011;5043;41.766;26.204;2023-11-21T01:50:25;13.40;;;8.43;;
10007;SDS011;5043;41.766;26.204;2023-11-21T01:52:51;12.07;;;9.07;;
10007;SDS011;5043;41.766;26.204;2023-11-21T01:55:17;13.48;;;8.68;;
10007;SDS011;5043;41.766;26.204;2023-11-21T01:57:43;11.47;;;9.00;;
10007;SDS011;5043;41.766;26.204;2023-11-21T02:00:11;13.80;;;8.63;;
10007;SDS011;5043;41.766;26.204;2023-11-21T02:02:46;12.73;;;8.10;;
10007;SDS011;5043;41.766;26.204;2023-11-21T02:05:13;11.03;;;7.87;;
10007;SDS011;5043;41.766;26.204;2023-11-21T02:07:40;13.73;;;7.33;;
10007;SDS011;5043;41.766;26.204;2023-11-21T02:10:07;9.60;;;7.70;;
10007;SDS011;5043;41.766;26.204;2023-11-21T02:12:34;11.10;;;7.97;;
10007;SDS011;5043;41.766;26.204;2023-11-21T02:15:04;9.77;;;7.60;;
10007;SDS011;5043;41.766;26.204;2023-11-21T02:17:34;14.67;;;9.10;;
10007;SDS011;5043;41.766;26.204;2023-11-21T02:20:00;12.97;;;9.30;;
10007;SDS011;5043;41.766;26.204;2023-11-21T02:22:29;16.27;;;10.50;;
10007;SDS011;5043;41.766;26.204;2023-11-21T02:24:58;11.37;;;9.13;;
10007;SDS011;5043;41.766;26.204;2023-11-21T02:27:23;13.20;;;9.27;;
10007;SDS011;5043;41.766;26.204;2023-11-21T02:29:49;16.20;;;11.13;;
10007;SDS011;5043;41.766;26.204;2023-11-21T02:32:15;14.47;;;11.10;;
10007;SDS011;5043;41.766;26.204;2023-11-21T02:34:42;14.47;;;11.10;;
10007;SDS011;5043;41.766;26.204;2023-11-21T02:37:08;14.70;;;9.60;;
10007;SDS011;5043;41.766;26.204;2023-11-21T02:39:34;14.60;;;7.75;;
10007;SDS011;5043;41.766;26.204;2023-11-21T02:41:59;14.93;;;7.77;;
10007;SDS011;5043;41.766;26.204;2023-11-21T02:44:25;14.77;;;7.50;;
10007;SDS011;5043;41.766;26.204;2023-11-21T02:46:51;11.87;;;8.50;;
10007;SDS011;5043;41.766;26.204;2023-11-21T02:49:16;9.93;;;7.47;;
10007;SDS011;5043;41.766;26.204;2023-11-21T02:51:42;14.97;;;8.27;;
10007;SDS011;5043;41.766;26.204;2023-11-21T02:54:08;14.17;;;9.50;;
10007;SDS011;5043;41.766;26.204;2023-11-21T02:56:34;11.73;;;7.50;;
10007;SDS011;5043;41.766;26.204;2023-11-21T02:58:59;14.13;;;8.63;;
10007;SDS011;5043;41.766;26.204;2023-11-21T03:01:25;17.77;;;9.32;;
10007;SDS011;5043;41.766;26.204;2023-11-21T03:03:52;17.97;;;8.70;;
10007;SDS011;5043;41.766;26.204;2023-11-21T03:06:18;20.42;;;8.38;;
10007;SDS011;5043;41.766;26.204;2023-11-21T03:08:46;17.00;;;8.87;;
10007;SDS011;5043;41.766;26.204;2023-11-21T03:11:13;19.77;;;8.60;;
10007;SDS011;5043;41.766;26.204;2023-11-21T03:13:39;18.08;;;8.23;;
10007;SDS011;5043;41.766;26.204;2023-11-21T03:16:07;17.98;;;8.27;;
10007;SDS011;5043;41.766;26.204;2023-11-21T03:18:36;14.70;;;9.53;;
10007;SDS011;5043;41.766;26.204;2023-11-21T03:21:04;25.80;;;13.23;;
10007;SDS011;5043;41.766;26.204;2023-11-21T03:23:31;17.67;;;10.53;;
10007;SDS011;5043;41.766;26.204;2023-11-21T03:25:57;20.35;;;10.35;;
10007;SDS011;5043;41.766;26.204;2023-11-21T03:28:23;12.13;;;8.13;;
10007;SDS011;5043;41.766;26.204;2023-11-21T03:30:48;15.53;;;8.00;;
10007;SDS011;5043;41.766;26.204;2023-11-21T03:33:14;9.90;;;6.53;;
10007;SDS011;5043;41.766;26.204;2023-11-21T03:35:39;8.33;;;6.40;;
10007;SDS011;5043;41.766;26.204;2023-11-21T03:38:07;13.38;;;6.40;;
10007;SDS011;5043;41.766;26.204;2023-11-21T03:40:32;12.63;;;7.27;;
10007;SDS011;5043;41.766;26.204;2023-11-21T03:42:58;10.47;;;6.20;;
10007;SDS011;5043;41.766;26.204;2023-11-21T03:45:23;10.90;;;7.60;;
10007;SDS011;5043;41.766;26.204;2023-11-21T03:47:49;11.27;;;7.33;;
10007;SDS011;5043;41.766;26.204;2023-11-21T03:50:15;13.27;;;6.67;;
10007;SDS011;5043;41.766;26.204;2023-11-21T03:52:40;12.83;;;7.30;;
10007;SDS011;5043;41.766;26.204;2023-11-21T03:55:06;12.77;;;7.83;;
10007;SDS011;5043;41.766;26.204;2023-11-21T03:57:32;12.37;;;7.63;;
10007;SDS011;5043;41.766;26.204;2023-11-21T03:59:57;8.87;;;6.53;;
10007;SDS011;5043;41.766;26.204;2023-11-21T04:02:23;11.90;;;8.73;;
10007;SDS011;5043;41.766;26.204;2023-11-21T04:04:50;13.20;;;9.33;;
10007;SDS011;5043;41.766;26.204;2023-11-21T04:07:15;9.77;;;7.95;;
10007;SDS011;5043;41.766;26.204;2023-11-21T04:09:41;9.60;;;6.90;;
10007;SDS011;5043;41.766;26.204;2023-11-21T04:12:07;12.87;;;6.30;;
10007;SDS011;5043;41.766;26.204;2023-11-21T04:14:34;9.70;;;6.03;;
10007;SDS011;5043;41.766;26.204;2023-11-21T04:16:59;15.63;;;9.97;;
10007;SDS011;5043;41.766;26.204;2023-11-21T04:19:24;90.00;;;50.90;;
10007;SDS011;5043;41.766;26.204;2023-11-21T04:21:50;58.10;;;30.70;;
10007;SDS011;5043;41.766;26.204;2023-11-21T04:24:16;31.03;;;19.33;;
10007;SDS011;5043;41.766;26.204;2023-11-21T04:26:41;22.47;;;12.83;;
10007;SDS011;5043;41.766;26.204;2023-11-21T04:29:08;12.23;;;7.37;;
10007;SDS011;5043;41.766;26.204;2023-11-21T04:31:33;11.90;;;7.95;;
10007;SDS011;5043;41.766;26.204;2023-11-21T04:33:59;17.47;;;8.53;;
10007;SDS011;5043;41.766;26.204;2023-11-21T04:36:24;16.17;;;11.07;;
10007;SDS011;5043;41.766;26.204;2023-11-21T04:38:50;28.23;;;19.47;;
10007;SDS011;5043;41.766;26.204;2023-11-21T04:41:15;45.83;;;30.03;;
10007;SDS011;5043;41.766;26.204;2023-11-21T04:43:41;38.67;;;26.93;;
10007;SDS011;5043;41.766;26.204;2023-11-21T04:46:07;67.50;;;39.57;;
10007;SDS011;5043;41.766;26.204;2023-11-21T04:48:33;40.23;;;26.33;;
10007;SDS011;5043;41.766;26.204;2023-11-21T04:50:58;18.23;;;11.90;;
10007;SDS011;5043;41.766;26.204;2023-11-21T04:53:24;17.80;;;9.73;;
10007;SDS011;5043;41.766;26.204;2023-11-21T04:55:49;11.33;;;9.20;;
10007;SDS011;5043;41.766;26.204;2023-11-21T04:58:15;14.87;;;9.80;;
10007;SDS011;5043;41.766;26.204;2023-11-21T05:00:40;13.90;;;9.37;;
10007;SDS011;5043;41.766;26.204;2023-11-21T05:03:06;17.00;;;8.77;;
10007;SDS011;5043;41.766;26.204;2023-11-21T05:05:32;14.17;;;11.20;;
10007;SDS011;5043;41.766;26.204;2023-11-21T05:07:59;22.60;;;14.53;;
10007;SDS011;5043;41.766;26.204;2023-11-21T05:10:25;20.10;;;14.67;;
10007;SDS011;5043;41.766;26.204;2023-11-21T05:12:50;34.23;;;16.73;;
10007;SDS011;5043;41.766;26.204;2023-11-21T05:15:16;11.73;;;9.50;;
10007;SDS011;5043;41.766;26.204;2023-11-21T05:17:42;16.00;;;10.77;;
10007;SDS011;5043;41.766;26.204;2023-11-21T05:20:13;18.93;;;17.03;;
10007;SDS011;5043;41.766;26.204;2023-11-21T05:22:42;14.90;;;10.00;;
10007;SDS011;5043;41.766;26.204;2023-11-21T05:25:08;11.63;;;8.90;;
10007;SDS011;5043;41.766;26.204;2023-11-21T05:27:35;14.33;;;8.53;;
10007;SDS011;5043;41.766;26.204;2023-11-21T05:30:01;12.10;;;8.43;;
10007;SDS011;5043;41.766;26.204;2023-11-21T05:32:32;20.67;;;8.57;;
10007;SDS011;5043;41.766;26.204;2023-11-21T05:34:59;14.80;;;7.87;;
10007;SDS011;5043;41.766;26.204;2023-11-21T05:37:24;20.07;;;8.07;;
10007;SDS011;5043;41.766;26.204;2023-11-21T05:39:51;16.63;;;7.90;;
10007;SDS011;5043;41.766;26.204;2023-11-21T05:42:18;19.63;;;8.60;;
10007;SDS011;5043;41.766;26.204;2023-11-21T05:44:43;22.67;;;8.90;;
10007;SDS011;5043;41.766;26.204;2023-11-21T05:47:09;12.40;;;7.50;;
10007;SDS011;5043;41.766;26.204;2023-11-21T05:49:35;19.73;;;9.10;;
10007;SDS011;5043;41.766;26.204;2023-11-21T05:52:00;17.87;;;8.80;;
10007;SDS011;5043;41.766;26.204;2023-11-21T05:54:26;19.55;;;10.70;;
10007;SDS011;5043;41.766;26.204;2023-11-21T05:56:51;19.37;;;13.40;;
10007;SDS011;5043;41.766;26.204;2023-11-21T05:59:17;34.90;;;17.50;;
10007;SDS011;5043;41.766;26.204;2023-11-21T06:01:43;31.40;;;18.30;;
10007;SDS011;5043;41.766;26.204;2023-11-21T06:04:10;25.42;;;13.23;;
10007;SDS011;5043;41.766;26.204;2023-11-21T06:06:36;26.57;;;14.63;;
10007;SDS011;5043;41.766;26.204;2023-11-21T06:09:01;24.27;;;15.50;;
10007;SDS011;5043;41.766;26.204;2023-11-21T06:11:27;36.00;;;16.50;;
10007;SDS011;5043;41.766;26.204;2023-11-21T06:13:53;26.33;;;16.63;;
10007;SDS011;5043;41.766;26.204;2023-11-21T06:16:18;29.05;;;15.43;;
10007;SDS011;5043;41.766;26.204;2023-11-21T06:18:47;18.17;;;12.63;;
10007;SDS011;5043;41.766;26.204;2023-11-21T06:21:13;20.10;;;11.18;;
10007;SDS011;5043;41.766;26.204;2023-11-21T06:23:39;20.43;;;13.20;;
10007;SDS011;5043;41.766;26.204;2023-11-21T06:26:06;19.40;;;14.60;;
10007;SDS011;5043;41.766;26.204;2023-11-21T06:28:31;29.13;;;19.97;;
10007;SDS011;5043;41.766;26.204;2023-11-21T06:30:57;31.23;;;20.75;;
10007;SDS011;5043;41.766;26.204;2023-11-21T06:33:23;30.95;;;19.15;;
10007;SDS011;5043;41.766;26.204;2023-11-21T06:35:52;23.73;;;16.00;;
10007;SDS011;5043;41.766;26.204;2023-11-21T06:38:18;26.65;;;14.63;;
10007;SDS011;5043;41.766;26.204;2023-11-21T06:40:43;22.33;;;14.15;;
10007;SDS011;5043;41.766;26.204;2023-11-21T06:43:10;22.58;;;16.45;;
10007;SDS011;5043;41.766;26.204;2023-11-21T06:45:35;23.95;;;15.27;;
10007;SDS011;5043;41.766;26.204;2023-11-21T06:48:01;22.77;;;13.30;;
10007;SDS011;5043;41.766;26.204;2023-11-21T06:50:26;17.48;;;11.73;;
10007;SDS011;5043;41.766;26.204;2023-11-21T06:52:52;16.20;;;11.07;;
10007;SDS011;5043;41.766;26.204;2023-11-21T06:55:18;14.75;;;11.13;;
10007;SDS011;5043;41.766;26.204;2023-11-21T06:57:43;13.93;;;10.98;;
10007;SDS011;5043;41.766;26.204;2023-11-21T07:00:10;14.10;;;11.38;;
10007;SDS011;5043;41.766;26.204;2023-11-21T07:02:36;15.93;;;11.85;;
10007;SDS011;5043;41.766;26.204;2023-11-21T07:05:03;26.83;;;14.52;;
10007;SDS011;5043;41.766;26.204;2023-11-21T07:07:29;23.05;;;15.27;;
10007;SDS011;5043;41.766;26.204;2023-11-21T07:09:54;25.75;;;17.08;;
10007;SDS011;5043;41.766;26.204;2023-11-21T07:12:20;32.13;;;20.67;;
10007;SDS011;5043;41.766;26.204;2023-11-21T07:14:48;33.25;;;22.15;;
10007;SDS011;5043;41.766;26.204;2023-11-21T07:17:14;30.05;;;19.77;;
10007;SDS011;5043;41.766;26.204;2023-11-21T07:19:40;23.70;;;15.00;;
10007;SDS011;5043;41.766;26.204;2023-11-21T07:22:06;16.10;;;11.18;;
10007;SDS011;5043;41.766;26.204;2023-11-21T07:24:32;18.73;;;12.68;;
10007;SDS011;5043;41.766;26.204;2023-11-21T07:26:57;21.50;;;12.05;;
10007;SDS011;5043;41.766;26.204;2023-11-21T07:29:24;21.45;;;14.63;;
10007;SDS011;5043;41.766;26.204;2023-11-21T07:31:54;19.33;;;12.52;;
10007;SDS011;5043;41.766;26.204;2023-11-21T07:34:20;16.83;;;11.15;;
10007;SDS011;5043;41.766;26.204;2023-11-21T07:36:47;17.63;;;14.07;;
10007;SDS011;5043;41.766;26.204;2023-11-21T07:39:12;17.33;;;9.82;;
10007;SDS011;5043;41.766;26.204;2023-11-21T07:41:40;14.63;;;11.45;;
10007;SDS011;5043;41.766;26.204;2023-11-21T07:44:10;14.80;;;11.07;;
10007;SDS011;5043;41.766;26.204;2023-11-21T07:46:35;14.23;;;10.75;;
10007;SDS011;5043;41.766;26.204;2023-11-21T07:49:01;12.55;;;9.75;;
10007;SDS011;5043;41.766;26.204;2023-11-21T07:51:26;17.58;;;11.88;;
10007;SDS011;5043;41.766;26.204;2023-11-21T07:53:52;15.45;;;11.43;;
10007;SDS011;5043;41.766;26.204;2023-11-21T07:56:17;13.93;;;10.95;;
10007;SDS011;5043;41.766;26.204;2023-11-21T07:58:43;28.13;;;12.35;;
10007;SDS011;5043;41.766;26.204;2023-11-21T08:01:09;18.88;;;13.02;;
10007;SDS011;5043;41.766;26.204;2023-11-21T08:03:35;18.38;;;12.38;;
10007;SDS011;5043;41.766;26.204;2023-11-21T08:06:01;22.85;;;12.57;;
10007;SDS011;5043;41.766;26.204;2023-11-21T08:08:28;14.82;;;12.15;;
10007;SDS011;5043;41.766;26.204;2023-11-21T08:10:54;15.93;;;12.65;;
10007;SDS011;5043;41.766;26.204;2023-11-21T08:13:23;16.90;;;13.10;;
10007;SDS011;5043;41.766;26.204;2023-11-21T08:15:49;19.17;;;15.27;;
10007;SDS011;5043;41.766;26.204;2023-11-21T08:18:15;16.60;;;12.68;;
10007;SDS011;5043;41.766;26.204;2023-11-21T08:20:41;16.02;;;13.80;;
10007;SDS011;5043;41.766;26.204;2023-11-21T08:23:07;17.08;;;13.50;;
10007;SDS011;5043;41.766;26.204;2023-11-21T08:25:32;14.60;;;13.05;;
10007;SDS011;5043;41.766;26.204;2023-11-21T08:27:59;19.27;;;12.93;;
10007;SDS011;5043;41.766;26.204;2023-11-21T08:30:25;16.88;;;13.48;;
10007;SDS011;5043;41.766;26.204;2023-11-21T08:32:53;20.27;;;13.00;;
10007;SDS011;5043;41.766;26.204;2023-11-21T08:35:18;18.88;;;13.38;;
10007;SDS011;5043;41.766;26.204;2023-11-21T08:37:44;16.42;;;12.77;;
10007;SDS011;5043;41.766;26.204;2023-11-21T08:40:11;22.05;;;13.93;;
10007;SDS011;5043;41.766;26.204;2023-11-21T08:42:41;15.82;;;12.45;;
10007;SDS011;5043;41.766;26.204;2023-11-21T08:45:07;17.73;;;12.77;;
10007;SDS011;5043;41.766;26.204;2023-11-21T08:47:34;16.10;;;12.18;;
10007;SDS011;5043;41.766;26.204;2023-11-21T08:50:02;18.30;;;13.35;;
10007;SDS011;5043;41.766;26.204;2023-11-21T08:52:28;15.27;;;13.02;;
10007;SDS011;5043;41.766;26.204;2023-11-21T08:54:53;19.23;;;13.65;;
10007;SDS011;5043;41.766;26.204;2023-11-21T08:57:22;19.25;;;13.57;;
10007;SDS011;5043;41.766;26.204;2023-11-21T08:59:48;15.13;;;13.52;;
10007;SDS011;5043;41.766;26.204;2023-11-21T09:02:13;18.67;;;14.75;;
10007;SDS011;5043;41.766;26.204;2023-11-21T09:04:38;18.33;;;14.95;;
10007;SDS011;5043;41.766;26.204;2023-11-21T09:07:04;25.73;;;15.90;;
10007;SDS011;5043;41.766;26.204;2023-11-21T09:09:30;19.48;;;15.30;;
10007;SDS011;5043;41.766;26.204;2023-11-21T09:11:55;23.42;;;18.00;;
10007;SDS011;5043;41.766;26.204;2023-11-21T09:14:21;22.67;;;15.50;;
10007;SDS011;5043;41.766;26.204;2023-11-21T09:16:47;21.25;;;14.85;;
10007;SDS011;5043;41.766;26.204;2023-11-21T09:19:12;17.40;;;12.68;;
10007;SDS011;5043;41.766;26.204;2023-11-21T09:21:39;30.67;;;18.38;;
10007;SDS011;5043;41.766;26.204;2023-11-21T09:24:05;16.08;;;12.95;;
10007;SDS011;5043;41.766;26.204;2023-11-21T09:26:30;14.98;;;10.60;;
10007;SDS011;5043;41.766;26.204;2023-11-21T09:28:56;12.57;;;9.82;;
10007;SDS011;5043;41.766;26.204;2023-11-21T09:31:22;11.98;;;10.57;;
10007;SDS011;5043;41.766;26.204;2023-11-21T09:33:48;13.80;;;10.65;;
10007;SDS011;5043;41.766;26.204;2023-11-21T09:36:14;13.35;;;9.95;;
10007;SDS011;5043;41.766;26.204;2023-11-21T09:38:40;11.57;;;10.00;;
10007;SDS011;5043;41.766;26.204;2023-11-21T09:41:07;10.88;;;9.77;;
10007;SDS011;5043;41.766;26.204;2023-11-21T09:43:42;12.93;;;8.90;;
10007;SDS011;5043;41.766;26.204;2023-11-21T09:46:11;10.93;;;9.00;;
10007;SDS011;5043;41.766;26.204;2023-11-21T09:48:44;9.60;;;8.18;;
10007;SDS011;5043;41.766;26.204;2023-11-21T09:51:12;12.80;;;9.23;;
10007;SDS011;5043;41.766;26.204;2023-11-21T09:53:39;9.60;;;8.60;;
10007;SDS011;5043;41.766;26.204;2023-11-21T09:56:09;10.02;;;8.30;;
10007;SDS011;5043;41.766;26.204;2023-11-21T09:58:35;8.98;;;7.75;;
10007;SDS011;5043;41.766;26.204;2023-11-21T10:01:01;12.85;;;8.65;;
10007;SDS011;5043;41.766;26.204;2023-11-21T10:03:28;11.43;;;8.27;;
10007;SDS011;5043;41.766;26.204;2023-11-21T10:05:53;9.32;;;8.43;;
10007;SDS011;5043;41.766;26.204;2023-11-21T10:08:21;9.43;;;7.75;;
10007;SDS011;5043;41.766;26.204;2023-11-21T10:10:49;8.30;;;7.43;;
10007;SDS011;5043;41.766;26.204;2023-11-21T10:13:18;8.80;;;7.82;;
10007;SDS011;5043;41.766;26.204;2023-11-21T10:15:44;8.65;;;7.82;;
10007;SDS011;5043;41.766;26.204;2023-11-21T10:18:15;11.20;;;8.88;;
10007;SDS011;5043;41.766;26.204;2023-11-21T10:20:41;9.57;;;8.65;;
10007;SDS011;5043;41.766;26.204;2023-11-21T10:23:08;10.20;;;8.75;;
10007;SDS011;5043;41.766;26.204;2023-11-21T10:25:36;9.90;;;8.70;;
10007;SDS011;5043;41.766;26.204;2023-11-21T10:28:03;13.93;;;9.70;;
10007;SDS011;5043;41.766;26.204;2023-11-21T10:30:36;10.35;;;8.73;;
10007;SDS011;5043;41.766;26.204;2023-11-21T10:33:03;11.75;;;8.50;;
10007;SDS011;5043;41.766;26.204;2023-11-21T10:38:12;16.50;;;9.73;;
10007;SDS011;5043;41.766;26.204;2023-11-21T10:40:40;16.60;;;9.88;;
10007;SDS011;5043;41.766;26.204;2023-11-21T10:43:07;11.35;;;9.65;;
10007;SDS011;5043;41.766;26.204;2023-11-21T10:45:34;10.90;;;8.40;;
10007;SDS011;5043;41.766;26.204;2023-11-21T10:48:04;11.43;;;9.20;;
10007;SDS011;5043;41.766;26.204;2023-11-21T10:50:32;13.75;;;9.63;;
10007;SDS011;5043;41.766;26.204;2023-11-21T10:53:00;12.23;;;10.73;;
10007;SDS011;5043;41.766;26.204;2023-11-21T10:55:29;11.85;;;10.50;;
10007;SDS011;5043;41.766;26.204;2023-11-21T10:57:58;13.50;;;10.82;;
10007;SDS011;5043;41.766;26.204;2023-11-21T11:00:26;12.60;;;10.40;;
10007;SDS011;5043;41.766;26.204;2023-11-21T11:02:52;14.18;;;10.93;;
10007;SDS011;5043;41.766;26.204;2023-11-21T11:05:20;14.18;;;11.88;;
10007;SDS011;5043;41.766;26.204;2023-11-21T11:07:48;16.30;;;11.93;;
10007;SDS011;5043;41.766;26.204;2023-11-21T11:10:20;14.40;;;12.18;;
10007;SDS011;5043;41.766;26.204;2023-11-21T11:12:48;23.02;;;12.48;;
10007;SDS011;5043;41.766;26.204;2023-11-21T11:15:15;20.15;;;12.02;;
10007;SDS011;5043;41.766;26.204;2023-11-21T11:17:41;15.18;;;12.00;;
10007;SDS011;5043;41.766;26.204;2023-11-21T11:20:10;14.95;;;12.00;;
10007;SDS011;5043;41.766;26.204;2023-11-21T11:25:27;20.05;;;13.40;;
10007;SDS011;5043;41.766;26.204;2023-11-21T11:28:18;15.48;;;13.57;;
10007;SDS011;5043;41.766;26.204;2023-11-21T11:37:02;26.42;;;17.38;;
10007;SDS011;5043;41.766;26.204;2023-11-21T11:39:48;22.17;;;16.45;;
10007;SDS011;5043;41.766;26.204;2023-11-21T11:58:48;19.13;;;13.93;;
10007;SDS011;5043;41.766;26.204;2023-11-21T12:08:34;20.73;;;13.90;;
10007;SDS011;5043;41.766;26.204;2023-11-21T12:11:01;21.50;;;13.30;;
10007;SDS011;5043;41.766;26.204;2023-11-21T12:17:02;23.17;;;13.93;;
10007;SDS011;5043;41.766;26.204;2023-11-21T12:26:04;20.77;;;14.07;;
10007;SDS011;5043;41.766;26.204;2023-11-21T12:28:30;22.55;;;13.50;;
10007;SDS011;5043;41.766;26.204;2023-11-21T12:34:39;19.88;;;14.10;;
10007;SDS011;5043;41.766;26.204;2023-11-21T12:37:05;17.55;;;13.57;;
10007;SDS011;5043;41.766;26.204;2023-11-21T12:46:05;22.15;;;15.68;;
10007;SDS011;5043;41.766;26.204;2023-11-21T12:48:37;26.15;;;15.80;;
10007;SDS011;5043;41.766;26.204;2023-11-21T12:54:05;19.73;;;14.23;;
10007;SDS011;5043;41.766;26.204;2023-11-21T12:56:40;21.52;;;14.65;;
10007;SDS011;5043;41.766;26.204;2023-11-21T12:59:06;17.63;;;12.95;;
10007;SDS011;5043;41.766;26.204;2023-11-21T13:09:06;16.08;;;12.38;;
10007;SDS011;5043;41.766;26.204;2023-11-21T13:16:07;17.65;;;13.05;;
10007;SDS011;5043;41.766;26.204;2023-11-21T13:19:07;19.70;;;12.98;;
10007;SDS011;5043;41.766;26.204;2023-11-21T13:21:52;24.02;;;13.75;;
10007;SDS011;5043;41.766;26.204;2023-11-21T13:24:48;19.02;;;14.40;;
10007;SDS011;5043;41.766;26.204;2023-11-21T13:27:22;20.77;;;15.52;;
10007;SDS011;5043;41.766;26.204;2023-11-21T13:29:51;28.83;;;14.13;;
10007;SDS011;5043;41.766;26.204;2023-11-21T13:35:20;18.77;;;12.85;;
10007;SDS011;5043;41.766;26.204;2023-11-21T13:52:22;14.70;;;12.95;;
10007;SDS011;5043;41.766;26.204;2023-11-21T14:02:37;13.75;;;11.38;;
10007;SDS011;5043;41.766;26.204;2023-11-21T14:05:18;14.27;;;9.13;;
10007;SDS011;5043;41.766;26.204;2023-11-21T14:08:03;14.27;;;10.25;;
10007;SDS011;5043;41.766;26.204;2023-11-21T14:13:27;16.33;;;10.90;;
10007;SDS011;5043;41.766;26.204;2023-11-21T14:15:53;17.65;;;12.32;;
10007;SDS011;5043;41.766;26.204;2023-11-21T14:18:26;14.50;;;11.45;;
10007;SDS011;5043;41.766;26.204;2023-11-21T14:21:06;15.75;;;11.48;;
10007;SDS011;5043;41.766;26.204;2023-11-21T14:23:33;14.25;;;10.07;;
10007;SDS011;5043;41.766;26.204;2023-11-21T14:26:01;13.07;;;10.45;;
10007;SDS011;5043;41.766;26.204;2023-11-21T14:28:26;12.32;;;9.73;;
10007;SDS011;5043;41.766;26.204;2023-11-21T14:30:52;15.00;;;10.77;;
10007;SDS011;5043;41.766;26.204;2023-11-21T14:33:17;13.82;;;10.30;;
10007;SDS011;5043;41.766;26.204;2023-11-21T14:35:43;20.20;;;12.73;;
10007;SDS011;5043;41.766;26.204;2023-11-21T14:38:17;16.55;;;10.30;;
10007;SDS011;5043;41.766;26.204;2023-11-21T14:43:41;13.43;;;8.85;;
10007;SDS011;5043;41.766;26.204;2023-11-21T14:46:08;13.45;;;10.07;;
10007;SDS011;5043;41.766;26.204;2023-11-21T14:48:35;14.90;;;10.30;;
10007;SDS011;5043;41.766;26.204;2023-11-21T14:55:03;14.88;;;9.13;;
10007;SDS011;5043;41.766;26.204;2023-11-21T15:11:07;24.42;;;15.85;;
10007;SDS011;5043;41.766;26.204;2023-11-21T15:17:40;16.67;;;11.25;;
10007;SDS011;5043;41.766;26.204;2023-11-21T15:34:26;12.65;;;8.02;;
10007;SDS011;5043;41.766;26.204;2023-11-21T15:41:23;14.05;;;9.77;;
10007;SDS011;5043;41.766;26.204;2023-11-21T15:47:50;13.50;;;9.35;;
10007;SDS011;5043;41.766;26.204;2023-11-21T15:54:20;18.80;;;10.20;;
10007;SDS011;5043;41.766;26.204;2023-11-21T15:56:49;15.05;;;11.82;;
10007;SDS011;5043;41.766;26.204;2023-11-21T15:59:20;15.93;;;10.70;;
10007;SDS011;5043;41.766;26.204;2023-11-21T16:05:50;17.45;;;10.35;;
10007;SDS011;5043;41.766;26.204;2023-11-21T16:08:16;17.27;;;10.38;;
10007;SDS011;5043;41.766;26.204;2023-11-21T16:14:02;21.90;;;14.77;;
10007;SDS011;5043;41.766;26.204;2023-11-21T16:16:28;24.15;;;16.05;;
10007;SDS011;5043;41.766;26.204;2023-11-21T16:18:53;23.80;;;17.45;;
10007;SDS011;5043;41.766;26.204;2023-11-21T16:21:19;29.20;;;19.95;;
10007;SDS011;5043;41.766;26.204;2023-11-21T16:23:45;33.35;;;19.67;;
10007;SDS011;5043;41.766;26.204;2023-11-21T16:26:11;23.50;;;13.77;;
10007;SDS011;5043;41.766;26.204;2023-11-21T16:28:37;34.50;;;19.70;;
10007;SDS011;5043;41.766;26.204;2023-11-21T16:31:12;20.63;;;14.05;;
10007;SDS011;5043;41.766;26.204;2023-11-21T16:33:49;10.90;;;8.35;;
10007;SDS011;5043;41.766;26.204;2023-11-21T16:36:14;16.55;;;9.75;;
10007;SDS011;5043;41.766;26.204;2023-11-21T16:38:40;11.63;;;8.07;;
10007;SDS011;5043;41.766;26.204;2023-11-21T16:41:05;11.80;;;8.85;;
10007;SDS011;5043;41.766;26.204;2023-11-21T16:47:28;20.55;;;13.13;;
10007;SDS011;5043;41.766;26.204;2023-11-21T16:50:00;18.48;;;13.30;;
10007;SDS011;5043;41.766;26.204;2023-11-21T16:52:28;16.67;;;12.05;;
10007;SDS011;5043;41.766;26.204;2023-11-21T16:54:56;17.80;;;11.77;;
10007;SDS011;5043;41.766;26.204;2023-11-21T16:57:21;20.17;;;13.57;;
10007;SDS011;5043;41.766;26.204;2023-11-21T16:59:47;17.33;;;12.15;;
10007;SDS011;5043;41.766;26.204;2023-11-21T17:02:16;16.45;;;11.55;;
10007;SDS011;5043;41.766;26.204;2023-11-21T17:04:49;18.50;;;10.60;;
10007;SDS011;5043;41.766;26.204;2023-11-21T17:07:15;18.17;;;10.82;;
10007;SDS011;5043;41.766;26.204;2023-11-21T17:09:41;14.85;;;11.40;;